Pagina principale
METAR-TAF:

METAR-TAF

Aeroporti :

Catacamas, Honduras

latitudine: 14-54N, longitudine: 085-56W, altezza: 442 m

Osservazione

Il bollettino è stato emesso 1 ora e 9 minuti fa, alle 14:00 UTC
Vento 4 kt da nord/nord-est
Temperature 29°C
Umidità 70%
Pressione 1014 hPa
Visibilità: 2000 m
Nubi sparse ad un'altezza di 2800 ft
fumo,

METAR: MHCA 221400Z 03004KT 2000 FU SCT028 29/23 Q1014

Ora: 09:09 (15:09 UTC)


TAF: mancante

Osservazioni e previsioni meteorologiche di più di 4000 aeroporti (messaggi METAR e TAF).

Le stazioni disponibili sono rappresentate dai dischi gialli e rossi sulla carta.

Puntare il mouse per vedere il nome della stazione.

Clicca sopra per visualizzare le osservazioni e previsioni meteorologiche.

Per cambiare la mappa : fare clic sui pulsanti verdi con una croce nera per ingrandire, il pulsante verde con un trattino per diminuire, o sulla freccia verde per le mappe adiacenti.


METAR-TAF: